Aviation Digital Data Service (ADDS)

Output produced by METARs form (0153 UTC 02 September 2014)
found at http://aviationweather.gov/adds/metars/
 
KLFT 020053Z 00000KT 10SM CLR 28/25 A3000 RMK AO2 LTG DSNT N SLP158 T02830250 $